Latest Weather Observations for PORTABLE NPWS NSW02

IDN60801

Issued at 3:32 pm EST Thursday 28 May 2020 (issued every 10 minutes, with the page automatically refreshed every 10 minutes)

About weather observations | Map of weather stations | Latest weather observations for NSW | Other Formats
Station Details ID: 250099 Name: PORTABLE NPWS NSW02 Lat: -33.10 Lon: 150.07 Height: 983.0 m

Portable automatic weather stations (PAWS) are operated by other organisations, such as Fire and Emergency Services, and are included here by agreement. Portable stations may be deployed to a location for a short period and their location may be subject to change without notice. Wind observations from these stations are provided from heights of either three (3) or ten (10) metres above ground level (AGL).

Data from the previous 72 hours. | See also: Recent months for locations in New South Wales
Date/Time
EST
Temp
°C
App
Temp
°C
Dew
Point
°C
Rel
Hum
%
Delta-T
°C
Wind Press
QNH
hPa
Press
MSL
hPa
Rain since
9am
mm
Dir  Spd
km/h
Gust
km/h
Spd
kts
Gust
kts
28/03:20pm 15.0 11.3 4.6 50 5.1 W 13 19 7 10 - - 0.0
28/03:10pm 15.4 11.7 4.6 48 5.3 WSW 13 19 7 10 - - 0.0
28/03:00pm 15.6 12.0 5.2 50 5.2 W 13 15 7 8 - - 0.0
28/02:50pm 15.8 12.9 4.8 48 5.5 W 9 15 5 8 - - 0.0
28/02:40pm 15.7 12.6 5.6 51 5.1 W 11 13 6 7 - - 0.0
28/02:30pm 15.8 12.8 5.9 51 5.0 WSW 11 17 6 9 - - 0.0
28/02:20pm 15.5 12.5 5.8 52 4.9 WSW 11 15 6 8 - - 0.0
28/02:10pm 14.3 11.1 4.9 53 4.6 WSW 11 13 6 7 - - 0.0
28/02:00pm 12.9 9.8 5.7 61 3.6 WSW 11 13 6 7 - - 0.0
28/01:50pm 13.6 11.0 6.0 60 3.8 WSW 9 13 5 7 - - 0.0
28/01:40pm 15.0 11.7 6.3 56 4.4 WSW 13 17 7 9 - - 0.0
28/01:30pm 15.5 12.1 6.1 53 4.8 W 13 19 7 10 - - 0.0
28/01:20pm 15.0 12.7 5.5 53 4.8 W 7 13 4 7 - - 0.0
28/01:10pm 13.2 11.6 6.5 64 3.4 SW 4 6 2 3 - - 0.0
28/01:00pm 13.0 11.2 7.0 67 3.1 SW 6 9 3 5 - - 0.0
28/12:50pm 13.2 11.4 7.2 67 3.1 WSW 6 7 3 4 - - 0.0
28/12:40pm 13.3 12.2 8.6 73 2.5 E 4 4 2 2 - - 0.0
28/12:30pm 13.8 13.1 8.6 71 2.8 ENE 2 6 1 3 - - 0.0
28/12:20pm 13.9 12.1 7.9 67 3.1 NNW 7 11 4 6 - - 0.0
28/12:10pm 14.0 12.0 6.9 62 3.6 WNW 7 11 4 6 - - 0.0
28/12:00pm 14.2 12.3 7.6 64 3.4 WSW 7 11 4 6 - - 0.0
28/11:50am 15.0 13.0 6.9 58 4.2 NNW 7 11 4 6 - - 0.0
28/11:40am 14.6 12.3 7.3 61 3.8 NNW 9 13 5 7 - - 0.0
28/11:30am 14.3 12.3 7.1 62 3.7 NNW 7 11 4 6 - - 0.0
28/11:20am 14.4 12.5 7.5 63 3.6 NNW 7 9 4 5 - - 0.0
28/11:10am 14.4 12.5 7.5 63 3.6 NW 7 11 4 6 - - 0.0
28/11:00am 14.2 12.2 7.2 63 3.6 NNW 7 9 4 5 - - 0.0
28/10:50am 14.2 12.4 7.1 62 3.7 WNW 6 7 3 4 - - 0.0
28/10:40am 14.0 12.3 7.6 65 3.3 WNW 6 7 3 4 - - 0.0
28/10:30am 14.0 12.2 7.2 63 3.5 SW 6 11 3 6 - - 0.0
28/10:20am 13.5 11.8 7.5 67 3.1 WSW 6 9 3 5 - - 0.0
28/10:00am 13.2 11.7 6.9 65 3.2 W 4 6 2 3 - - 0.0
28/09:50am 13.1 10.7 6.8 65 3.2 SW 9 11 5 6 - - 0.0
28/09:40am 13.3 11.4 6.8 64 3.3 WSW 6 9 3 5 - - 0.0
28/09:30am 13.2 11.3 6.5 64 3.4 SW 6 9 3 5 - - 0.0
28/09:20am 12.7 10.6 6.7 67 3.0 SSW 7 9 4 5 - - 0.0
28/09:10am 12.5 10.4 6.7 68 2.9 SSW 7 9 4 5 - - 0.0
28/09:00am 12.3 10.4 6.5 67 2.9 SW 6 7 3 4 - - 0.0
28/08:50am 12.1 10.1 6.3 67 2.9 SW 6 7 3 4 - - 0.0
28/08:40am 11.7 9.7 6.2 69 2.7 SSW 6 7 3 4 - - 0.0
28/08:30am 11.3 9.1 6.2 71 2.5 SSW 7 11 4 6 - - 0.0
28/08:20am 10.9 8.7 6.0 72 2.4 SSW 7 11 4 6 - - 0.0
28/08:10am 10.5 8.3 6.2 75 2.1 SSW 7 9 4 5 - - 0.0
28/08:00am 10.0 7.7 5.9 75 2.0 SW 7 9 4 5 - - 0.0
28/07:50am 9.4 6.7 5.6 77 1.8 SW 9 13 5 7 - - 0.0
28/07:40am 8.7 6.0 5.4 80 1.6 SW 9 11 5 6 - - 0.0
28/07:30am 8.3 5.6 5.5 82 1.3 SW 9 9 5 5 - - 0.0
28/07:20am 8.3 5.6 5.4 82 1.4 SW 9 13 5 7 - - 0.0
28/07:10am 8.4 5.7 5.5 82 1.4 SW 9 11 5 6 - - 0.0
28/07:00am 8.4 5.7 5.5 82 1.4 SW 9 11 5 6 - - 0.0
28/06:50am 8.6 5.9 5.5 81 1.5 WSW 9 11 5 6 - - 0.0
28/06:40am 8.6 5.5 5.5 81 1.5 WSW 11 11 6 6 - - 0.0
28/06:30am 8.6 5.5 5.5 81 1.5 WSW 11 13 6 7 - - 0.0
28/06:20am 8.5 5.8 5.5 81 1.4 WSW 9 11 5 6 - - 0.0
28/06:10am 8.4 6.0 5.4 81 1.4 WSW 7 9 4 5 - - 0.0
28/06:00am 8.1 5.4 5.4 83 1.3 WSW 9 11 5 6 - - 0.0
28/05:50am 7.7 5.0 5.4 85 1.1 SW 9 11 5 6 - - 0.0
28/05:40am 7.7 5.6 5.6 86 1.0 WSW 6 6 3 3 - - 0.0
28/05:30am 7.8 5.6 5.5 85 1.1 WSW 6 7 3 4 - - 0.0
28/05:20am 7.8 5.7 5.7 86 1.0 WSW 6 6 3 3 - - 0.0
28/05:10am 7.8 6.1 5.9 88 0.9 WSW 4 6 2 3 - - 0.0
28/05:00am 7.8 6.5 5.8 87 1.0 W 2 4 1 2 - - 0.0
28/04:50am 7.7 6.0 5.7 87 1.0 WSW 4 7 2 4 - - 0.0
28/04:40am 7.6 5.6 6.1 90 0.7 WSW 6 6 3 3 - - 0.0
28/04:30am 7.7 6.2 6.8 94 0.4 W 4 6 2 3 - - 0.0
28/04:20am 7.8 6.3 6.9 94 0.4 WSW 4 4 2 2 - - 0.0
28/04:10am 7.9 6.5 7.1 95 0.4 NW 4 4 2 2 - - 0.0
28/04:00am 7.9 6.4 6.9 93 0.5 NNW 4 4 2 2 - - 0.0
28/03:50am 8.1 6.6 6.9 92 0.6 NNW 4 6 2 3 - - 0.0
28/03:40am 8.4 6.9 7.0 91 0.7 NNW 4 4 2 2 - - 0.0
28/03:30am 8.5 7.0 7.0 90 0.7 W 4 6 2 3 - - 0.0
28/03:20am 8.7 6.7 7.0 89 0.8 W 7 11 4 6 - - 0.0
28/03:10am 8.5 6.1 7.1 91 0.7 W 9 11 5 6 - - 0.0
28/03:00am 8.3 6.5 7.2 93 0.5 W 6 9 3 5 - - 0.0
28/02:50am 8.4 7.0 7.3 93 0.5 WNW 4 6 2 3 - - 0.0
28/02:40am 8.6 6.8 7.3 91 0.6 WNW 6 6 3 3 - - 0.0
28/02:30am 8.6 6.9 7.4 92 0.6 NW 6 7 3 4 - - 0.0
28/02:20am 8.6 6.7 7.4 92 0.6 NW 7 9 4 5 - - 0.0
28/02:00am 8.6 6.7 7.5 93 0.6 NW 7 7 4 4 - - 0.0
28/01:50am 8.7 6.8 7.5 92 0.6 NW 7 7 4 4 - - 0.0
28/01:40am 8.7 6.8 7.5 92 0.6 NW 7 9 4 5 - - 0.0
28/01:30am 8.7 7.0 7.5 92 0.6 NW 6 7 3 4 - - 0.0
28/01:20am 8.7 6.8 7.4 91 0.6 NW 7 7 4 4 - - 0.0
28/01:10am 8.7 7.0 7.4 91 0.6 WNW 6 7 3 4 - - 0.0
28/01:00am 8.6 6.8 7.3 91 0.6 WNW 6 7 3 4 - - 0.0
28/12:50am 8.6 6.8 7.3 91 0.6 WNW 6 7 3 4 - - 0.0
28/12:40am 8.7 7.0 7.4 91 0.6 NW 6 6 3 3 - - 0.0
28/12:30am 8.7 6.9 7.3 91 0.7 NW 6 7 3 4 - - 0.0
28/12:20am 8.8 7.0 7.3 90 0.7 NW 6 7 3 4 - - 0.0
28/12:10am 8.9 7.1 7.3 90 0.8 NW 6 7 3 4 - - 0.0
28/12:00am 9.0 7.2 7.3 89 0.8 NW 6 7 3 4 - - 0.0
 
Date/Time
EST
Temp
°C
App
Temp
°C
Dew
Point
°C
Rel
Hum
%
Delta-T
°C
Wind Press
QNH
hPa
Press
MSL
hPa
Rain since
9am
mm
Dir  Spd
km/h
Gust
km/h
Spd
kts
Gust
kts
27/11:50pm 8.9 7.1 7.3 90 0.8 NNW 6 6 3 3 - - 0.0
27/11:40pm 9.0 7.3 7.4 90 0.8 NW 6 6 3 3 - - 0.0
27/11:30pm 9.2 7.8 7.3 88 1.0 N 4 6 2 3 - - 0.0
27/11:20pm 8.9 7.5 7.4 90 0.8 NNE 4 4 2 2 - - 0.0
27/11:10pm 8.9 7.6 7.8 93 0.6 NE 4 6 2 3 - - 0.0
27/11:00pm 8.8 7.1 7.7 93 0.6 ESE 6 7 3 4 - - 0.0
27/10:50pm 8.9 7.2 7.6 91 0.7 E 6 7 3 4 - - 0.0
27/10:40pm 9.0 7.1 7.6 91 0.7 E 7 9 4 5 - - 0.0
27/10:30pm 9.0 7.1 7.6 91 0.7 E 7 9 4 5 - - 0.0
27/10:20pm 9.2 7.3 7.4 88 0.9 E 7 7 4 4 - - 0.0
27/10:10pm 9.2 7.4 7.2 87 1.0 E 6 7 3 4 - - 0.0
27/10:00pm 9.0 7.3 7.5 90 0.8 E 6 6 3 3 - - 0.0
27/09:50pm 9.0 7.1 7.5 90 0.8 E 7 9 4 5 - - 0.0
27/09:40pm 9.1 7.4 7.4 89 0.9 E 6 9 3 5 - - 0.0
27/09:30pm 9.1 7.4 7.4 89 0.9 E 6 9 3 5 - - 0.0
27/09:20pm 9.2 7.2 7.3 88 1.0 E 7 9 4 5 - - 0.0
27/09:10pm 9.3 7.3 7.3 87 1.0 E 7 9 4 5 - - 0.0
27/09:00pm 9.3 7.3 7.2 87 1.0 E 7 9 4 5 - - 0.0
27/08:50pm 9.4 7.4 7.1 85 1.1 E 7 7 4 4 - - 0.0
27/08:40pm 9.5 7.1 6.8 83 1.3 E 9 11 5 6 - - 0.0
27/08:30pm 9.6 7.5 6.8 83 1.4 ENE 7 9 4 5 - - 0.0
27/08:20pm 9.8 7.6 6.0 77 1.9 E 7 9 4 5 - - 0.0
27/08:10pm 9.9 7.7 6.2 78 1.8 SE 7 9 4 5 - - 0.0
27/08:00pm 10.2 7.9 5.9 74 2.1 SSE 7 7 4 4 - - 0.0
27/07:50pm 10.3 8.7 6.2 76 2.0 S 4 6 2 3 - - 0.0
27/07:40pm 10.4 9.1 6.2 75 2.1 SSW 2 4 1 2 - - 0.0
27/07:30pm 10.5 9.2 6.1 74 2.2 ENE 2 2 1 1 - - 0.0
27/07:20pm 10.5 9.2 6.2 75 2.1 NNW 2 4 1 2 - - 0.0
27/07:10pm 10.6 9.3 6.0 73 2.3 ENE 2 2 1 1 - - 0.0
27/07:00pm 10.8 9.5 6.1 73 2.3 NE 2 4 1 2 - - 0.0
27/06:50pm 11.0 9.3 6.1 72 2.4 NW 4 6 2 3 - - 0.0
27/06:40pm 10.9 9.2 5.9 71 2.5 W 4 7 2 4 - - 0.0
27/06:30pm 10.8 8.7 6.0 72 2.4 WNW 6 6 3 3 - - 0.0
27/06:20pm 10.6 8.5 6.0 73 2.3 WNW 6 7 3 4 - - 0.0
27/06:10pm 10.4 8.4 6.1 75 2.1 WNW 6 6 3 3 - - 0.0
27/06:00pm 10.4 8.8 6.2 75 2.1 WNW 4 6 2 3 - - 0.0
27/05:50pm 10.4 8.8 6.2 75 2.1 NW 4 6 2 3 - - 0.0
27/05:40pm 10.5 8.9 6.4 76 2.0 WNW 4 4 2 2 - - 0.0
27/05:30pm 10.5 8.9 6.3 75 2.1 NW 4 4 2 2 - - 0.0
27/05:20pm 10.4 8.8 6.4 76 2.0 WNW 4 4 2 2 - - 0.0
27/05:10pm 10.6 9.4 6.5 76 2.0 SW 2 4 1 2 - - 0.0
27/05:00pm 10.8 9.6 6.4 74 2.2 ENE 2 2 1 1 - - 0.0
27/04:50pm 10.8 9.3 6.6 75 2.1 NW 4 6 2 3 - - 0.0
27/04:40pm 11.0 9.9 7.0 76 2.0 NW 2 4 1 2 - - 0.0
27/04:30pm 11.3 9.8 6.9 74 2.2 NW 4 6 2 3 - - 0.0
27/04:20pm 11.5 10.0 6.8 73 2.4 NW 4 6 2 3 - - 0.0
27/04:10pm 11.5 9.6 6.7 72 2.4 E 6 9 3 5 - - 0.0
27/04:00pm 11.3 9.7 6.3 71 2.5 NNE 4 4 2 2 - - 0.0
27/03:50pm 11.4 9.8 6.5 72 2.4 NE 4 7 2 4 - - 0.0
27/03:40pm 12.0 10.1 6.7 70 2.7 E 6 7 3 4 - - 0.0
27/03:30pm 12.5 10.6 6.7 68 2.9 ENE 6 9 3 5 - - 0.0
27/03:20pm 12.4 10.5 6.7 68 2.9 E 6 9 3 5 - - 0.0
27/03:10pm 12.5 10.6 6.9 68 2.8 ENE 6 7 3 4 - - 0.0
27/03:00pm 12.9 11.1 7.0 67 3.0 NE 6 7 3 4 - - 0.0
27/02:50pm 13.3 11.4 6.7 64 3.4 ENE 6 7 3 4 - - 0.0
27/02:40pm 13.6 12.1 6.6 62 3.6 N 4 7 2 4 - - 0.0
27/02:30pm 12.3 11.1 6.5 67 2.9 ENE 2 4 1 2 - - 0.0
27/02:20pm 12.6 10.8 7.0 68 2.8 N 6 9 3 5 - - 0.0
27/02:10pm 13.3 11.5 7.3 67 3.1 ENE 6 7 3 4 - - 0.0
27/02:00pm 13.9 12.1 7.1 63 3.5 SE 6 7 3 4 - - 0.0
27/01:50pm 13.6 12.2 7.4 66 3.2 SSE 4 4 2 2 - - 0.0
27/01:40pm 13.1 12.1 7.3 68 3.0 NNE 2 4 1 2 - - 0.0
27/01:30pm 12.9 11.0 6.7 66 3.1 WNW 6 7 3 4 - - 0.0
27/01:20pm 12.3 10.4 6.7 68 2.8 NW 6 9 3 5 - - 0.0
27/01:10pm 11.8 9.8 6.3 69 2.7 NNE 6 7 3 4 - - 0.0
27/01:00pm 11.9 10.4 6.8 71 2.6 NE 4 6 2 3 - - 0.0
27/12:50pm 11.8 10.3 6.7 71 2.6 ENE 4 6 2 3 - - 0.0
27/12:40pm 11.4 9.9 6.9 74 2.3 E 4 6 2 3 - - 0.0
27/12:30pm 11.7 10.3 7.1 73 2.3 E 4 7 2 4 - - 0.0
27/12:20pm 12.4 10.5 7.4 71 2.6 ENE 7 11 4 6 - - 0.0
27/12:10pm 12.6 10.5 6.7 67 3.0 ENE 7 9 4 5 - - 0.0
27/12:00pm 11.9 9.9 7.0 72 2.5 ENE 7 11 4 6 - - 0.0
27/11:50am 11.9 9.9 7.2 73 2.4 ENE 7 11 4 6 - - 0.0
27/11:40am 11.6 9.6 7.0 73 2.3 ENE 7 9 4 5 - - 0.0
27/11:30am 11.2 9.2 6.9 75 2.2 E 7 9 4 5 - - 0.0
27/11:20am 11.1 8.8 7.3 77 1.9 ENE 9 11 5 6 - - 0.0
27/11:10am 11.4 9.1 7.4 76 2.0 ENE 9 11 5 6 - - 0.0
27/11:00am 10.7 8.9 7.8 82 1.5 ENE 7 11 4 6 - - 0.0
27/10:50am 10.4 8.4 7.1 80 1.7 ENE 7 9 4 5 - - 0.0
27/10:40am 10.3 8.3 7.1 80 1.6 ENE 7 9 4 5 - - 0.0
27/10:30am 10.8 9.1 7.5 80 1.7 NE 6 9 3 5 - - 0.0
27/10:20am 10.8 8.8 7.2 78 1.8 ENE 7 9 4 5 - - 0.0
27/10:10am 11.0 9.4 7.8 80 1.6 E 6 9 3 5 - - 0.0
27/10:00am 10.9 8.9 7.1 77 1.9 E 7 11 4 6 - - 0.0
27/09:50am 10.1 8.2 7.4 83 1.4 E 7 9 4 5 - - 0.0
27/09:40am 9.6 7.2 7.2 85 1.2 E 9 11 5 6 - - 0.0
27/09:30am 9.8 7.9 7.5 85 1.2 E 7 9 4 5 - - 0.0
27/09:20am 9.9 8.0 7.5 85 1.2 E 7 9 4 5 - - 0.0
27/09:10am 9.8 7.9 7.5 85 1.2 E 7 11 4 6 - - 0.0
27/09:00am 9.2 7.3 7.4 88 0.9 ESE 7 11 4 6 - - 1.4
27/08:50am 9.0 7.1 7.6 91 0.7 E 7 9 4 5 - - 1.4
27/08:40am 8.6 6.6 7.3 91 0.6 E 7 11 4 6 - - 1.4
27/08:30am 8.6 6.2 7.0 90 0.8 E 9 11 5 6 - - 1.4
27/08:20am 8.7 6.3 6.9 88 0.9 ESE 9 11 5 6 - - 1.4
27/08:10am 8.3 6.2 6.8 90 0.7 ESE 7 9 4 5 - - 1.4
27/08:00am 8.1 5.6 6.7 91 0.7 ESE 9 13 5 7 - - 1.4
27/07:50am 7.4 5.3 6.7 95 0.3 - 7 11 4 6 - - 1.4
27/07:40am 6.7 4.5 6.1 96 0.3 - 7 9 4 5 - - 1.4
27/07:30am 6.6 4.4 6.1 97 0.2 ESE 7 11 4 6 - - 1.4
27/07:20am 6.2 4.1 5.7 97 0.2 ESE 6 7 3 4 - - 1.4
27/07:10am 6.2 4.1 5.6 96 0.3 ESE 6 7 3 4 - - 1.4
27/07:00am 6.3 4.2 5.8 97 0.2 E 6 9 3 5 - - 1.4
27/06:50am 6.3 4.6 5.7 96 0.3 ENE 4 6 2 3 - - 1.4
27/06:40am 6.5 4.4 5.9 96 0.3 ESE 6 9 3 5 - - 1.4
27/06:30am 6.6 4.5 6.0 96 0.3 E 6 7 3 4 - - 1.4
27/06:20am 6.5 4.4 5.9 96 0.3 E 6 6 3 3 - - 1.4
27/06:10am 6.6 4.9 5.9 95 0.3 E 4 6 2 3 - - 1.4
27/06:00am 6.7 5.0 6.0 95 0.3 E 4 6 2 3 - - 1.4
27/05:50am 6.7 4.6 6.0 95 0.3 E 6 7 3 4 - - 1.4
27/05:40am 6.7 4.6 6.0 95 0.3 ENE 6 9 3 5 - - 1.4
27/05:30am 6.5 4.4 5.9 96 0.3 E 6 7 3 4 - - 1.4
27/05:20am 6.4 4.3 5.8 96 0.3 E 6 7 3 4 - - 1.4
27/05:10am 6.4 4.1 5.8 96 0.3 ESE 7 9 4 5 - - 1.4
27/05:00am 6.4 4.1 5.8 96 0.3 ESE 7 9 4 5 - - 1.4
27/04:50am 6.4 4.3 5.7 95 0.3 ESE 6 7 3 4 - - 1.4
27/04:40am 6.4 4.3 5.7 95 0.3 ESE 6 9 3 5 - - 1.4
27/04:30am 6.4 4.1 5.8 96 0.3 ESE 7 11 4 6 - - 1.4
27/04:20am 6.5 4.8 5.8 95 0.3 ESE 4 9 2 5 - - 1.4
27/04:10am 6.5 4.2 5.8 95 0.3 E 7 9 4 5 - - 1.4
27/04:00am 6.5 4.2 5.9 96 0.3 ESE 7 11 4 6 - - 1.4
27/03:50am 6.6 4.4 6.0 96 0.3 ESE 7 9 4 5 - - 1.4
27/03:40am 6.6 4.5 6.0 96 0.3 E 6 7 3 4 - - 1.4
27/03:30am 6.7 4.6 6.0 95 0.3 E 6 7 3 4 - - 1.4
27/03:20am 6.7 4.5 6.0 95 0.3 ESE 7 9 4 5 - - 1.4
27/03:10am 6.8 4.8 6.1 95 0.3 E 6 7 3 4 - - 1.4
27/03:00am 6.9 5.2 6.1 95 0.4 ENE 4 6 2 3 - - 1.4
27/02:50am 6.9 4.7 6.2 95 0.3 E 7 9 4 5 - - 1.4
27/02:40am 6.9 4.7 6.1 95 0.4 E 7 9 4 5 - - 1.4
27/02:30am 6.9 4.3 6.1 95 0.4 E 9 9 5 5 - - 1.4
27/02:20am 7.0 4.0 6.2 95 0.4 ESE 11 13 6 7 - - 1.4
27/02:10am 7.0 4.4 6.2 95 0.4 ESE 9 11 5 6 - - 1.4
27/02:00am 7.0 4.0 6.2 95 0.4 ESE 11 13 6 7 - - 1.4
27/01:50am 7.1 4.5 6.2 94 0.4 ESE 9 11 5 6 - - 1.4
27/01:40am 7.1 4.9 6.2 94 0.4 E 7 13 4 7 - - 1.4
27/01:30am 7.2 5.0 6.2 93 0.5 ESE 7 11 4 6 - - 1.4
27/01:20am 7.2 4.3 6.3 94 0.4 ESE 11 11 6 6 - - 1.4
27/01:10am 7.3 4.4 6.3 93 0.5 ESE 11 13 6 7 - - 1.4
27/01:00am 7.4 4.5 6.3 93 0.5 ESE 11 13 6 7 - - 1.4
27/12:50am 7.3 4.7 6.3 93 0.5 ESE 9 13 5 7 - - 1.4
27/12:40am 7.4 4.8 6.2 92 0.6 E 9 13 5 7 - - 1.4
27/12:30am 7.4 5.2 6.2 92 0.6 E 7 11 4 6 - - 1.4
27/12:20am 7.5 4.5 6.1 91 0.7 ESE 11 15 6 8 - - 1.4
27/12:10am 7.4 5.3 5.9 90 0.7 - 6 9 3 5 - - 1.4
27/12:00am 7.6 5.6 6.1 90 0.7 E 6 9 3 5 - - 1.4
 
Date/Time
EST
Temp
°C
App
Temp
°C
Dew
Point
°C
Rel
Hum
%
Delta-T
°C
Wind Press
QNH
hPa
Press
MSL
hPa
Rain since
9am
mm
Dir  Spd
km/h
Gust
km/h
Spd
kts
Gust
kts
26/11:50pm 7.6 5.4 6.4 92 0.6 E 7 13 4 7 - - 1.4
26/11:40pm 7.8 5.3 6.6 92 0.6 E 9 11 5 6 - - 1.4
26/11:30pm 7.9 5.5 6.8 93 0.5 E 9 13 5 7 - - 1.4
26/11:20pm 7.9 5.5 6.8 93 0.5 E 9 11 5 6 - - 1.4
26/11:10pm 7.9 5.9 7.0 94 0.4 E 7 11 4 6 - - 1.4
26/11:00pm 7.8 5.8 7.0 95 0.4 E 7 13 4 7 - - 1.4
26/10:50pm 7.8 5.4 7.2 96 0.3 - 9 17 5 9 - - 1.2
26/10:40pm 7.9 5.5 7.2 95 0.3 E 9 15 5 8 - - 1.2
26/10:30pm 8.0 6.0 7.1 94 0.4 E 7 9 4 5 - - 1.2
26/10:20pm 8.1 6.2 6.9 92 0.6 E 6 7 3 4 - - 1.2
26/10:10pm 8.0 6.0 6.9 93 0.5 ESE 7 11 4 6 - - 1.2
26/10:00pm 8.0 5.6 6.8 92 0.6 E 9 13 5 7 - - 1.2
26/09:50pm 7.9 5.1 6.8 93 0.5 E 11 15 6 8 - - 1.2
26/09:40pm 8.0 5.2 7.0 93 0.5 E 11 13 6 7 - - 1.2
26/09:30pm 8.0 5.2 7.1 94 0.4 E 11 13 6 7 - - 1.2
26/09:20pm 7.9 4.8 7.1 95 0.4 ESE 13 15 7 8 - - 1.2
26/09:10pm 7.9 5.1 7.1 95 0.4 ESE 11 13 6 7 - - 1.2
26/09:00pm 7.9 5.5 7.2 95 0.3 E 9 15 5 8 - - 1.2
26/08:50pm 8.0 5.3 7.3 95 0.3 E 11 15 6 8 - - 1.2
26/08:40pm 8.0 5.3 7.2 95 0.4 ESE 11 13 6 7 - - 1.2
26/08:30pm 8.0 5.6 7.2 95 0.4 ESE 9 13 5 7 - - 1.2
26/08:20pm 8.0 5.3 7.2 95 0.4 ESE 11 13 6 7 - - 1.2
26/08:10pm 8.0 4.9 7.1 94 0.4 E 13 17 7 9 - - 1.2
26/08:00pm 7.9 5.1 7.0 94 0.4 ESE 11 17 6 9 - - 1.2
26/07:50pm 7.9 5.1 7.1 95 0.4 ESE 11 13 6 7 - - 1.2
26/07:40pm 8.0 5.6 7.2 95 0.4 ESE 9 11 5 6 - - 1.2
26/07:30pm 8.1 5.7 7.1 93 0.5 ESE 9 11 5 6 - - 1.2
26/07:20pm 8.3 5.5 6.8 90 0.7 ESE 11 15 6 8 - - 1.2
26/07:10pm 8.5 4.8 6.4 87 1.0 SE 15 17 8 9 - - 1.2
26/07:00pm 8.5 5.2 6.2 85 1.1 SE 13 17 7 9 - - 1.2
26/06:50pm 8.5 5.2 6.2 85 1.1 SE 13 17 7 9 - - 1.2
26/06:40pm 8.6 5.3 6.2 85 1.2 SE 13 17 7 9 - - 1.2
26/06:30pm 8.8 5.5 6.2 84 1.3 ESE 13 17 7 9 - - 1.2
26/06:20pm 8.8 5.8 6.1 83 1.3 SE 11 15 6 8 - - 1.2
26/06:10pm 8.7 5.8 6.3 85 1.2 ESE 11 17 6 9 - - 1.2
26/06:00pm 8.6 5.3 6.3 85 1.1 ESE 13 19 7 10 - - 1.2
26/05:50pm 8.6 5.7 6.4 86 1.1 ESE 11 17 6 9 - - 1.2
26/05:40pm 8.7 5.8 6.6 87 1.0 ESE 11 15 6 8 - - 1.2
26/05:30pm 9.0 6.1 6.6 85 1.2 ESE 11 17 6 9 - - 1.2
26/05:20pm 9.0 6.5 6.7 85 1.1 SE 9 17 5 9 - - 1.2
26/05:10pm 9.0 6.1 6.6 85 1.2 ESE 11 15 6 8 - - 1.2
26/05:00pm 9.0 6.2 6.9 87 1.0 ESE 11 15 6 8 - - 1.2
26/04:50pm 9.1 5.9 7.0 87 1.0 ESE 13 19 7 10 - - 1.2
26/04:40pm 9.2 6.5 7.2 87 1.0 ESE 11 17 6 9 - - 1.2
26/04:30pm 9.3 6.2 7.4 88 1.0 ESE 13 15 7 8 - - 1.2
26/04:20pm 9.5 6.9 7.9 90 0.8 ESE 11 17 6 9 - - 1.2
26/04:10pm 9.6 6.7 8.0 90 0.8 ESE 13 17 7 9 - - 1.2
26/04:00pm 9.7 7.2 8.3 91 0.7 ESE 11 13 6 7 - - 1.2
26/03:50pm 9.6 7.1 8.2 91 0.7 SE 11 17 6 9 - - 1.2
26/03:40pm 9.5 5.9 8.3 92 0.6 ESE 17 20 9 11 - - 1.2
26/03:30pm 9.5 6.7 8.6 94 0.5 SE 13 19 7 10 - - 1.0
26/03:20pm 10.0 7.6 8.8 92 0.6 ESE 11 15 6 8 - - 0.8
26/03:10pm 10.7 8.5 9.4 92 0.7 SE 11 15 6 8 - - 0.6
26/03:00pm 10.9 9.5 8.7 86 1.1 ESE 6 13 3 7 - - 0.6
26/02:50pm 11.0 9.0 8.5 84 1.3 ESE 9 15 5 8 - - 0.6
26/02:40pm 11.3 8.8 8.4 82 1.5 SE 11 17 6 9 - - 0.6
26/02:30pm 11.7 10.2 8.5 81 1.7 ENE 6 11 3 6 - - 0.6
26/02:20pm 12.3 9.9 8.8 79 1.8 ESE 11 15 6 8 - - 0.6
26/02:10pm 12.7 9.9 8.6 76 2.2 ESE 13 15 7 8 - - 0.6
26/02:00pm 12.4 9.5 8.1 75 2.2 ESE 13 15 7 8 - - 0.6
26/01:50pm 11.9 8.9 7.8 76 2.1 ESE 13 19 7 10 - - 0.6
26/01:40pm 11.9 9.0 8.0 77 2.0 ESE 13 15 7 8 - - 0.6
26/01:30pm 12.1 9.6 8.3 77 2.0 SE 11 17 6 9 - - 0.6
26/01:20pm 11.7 9.2 8.4 80 1.7 SE 11 15 6 8 - - 0.6
26/01:10pm 11.9 9.5 8.7 81 1.7 SE 11 20 6 11 - - 0.6
26/01:00pm 12.3 9.6 9.1 81 1.7 ESE 13 15 7 8 - - 0.6
26/12:50pm 12.2 9.4 8.6 78 1.9 SE 13 19 7 10 - - 0.6
26/12:40pm 12.2 10.1 9.7 85 1.3 ESE 11 19 6 10 - - 0.6
26/12:30pm 11.6 9.2 10.1 90 0.8 SE 13 19 7 10 - - 0.6
26/12:20pm 11.3 8.9 9.9 91 0.7 SE 13 20 7 11 - - 0.6
26/12:10pm 10.6 7.7 9.6 93 0.5 SE 15 22 8 12 - - 0.6
26/12:00pm 10.9 8.9 10.0 94 0.5 SE 11 15 6 8 - - 0.4
26/11:50am 10.8 8.8 10.0 95 0.4 SE 11 13 6 7 - - 0.4
26/11:40am 10.7 9.0 9.9 95 0.4 SE 9 11 5 6 - - 0.4
26/11:30am 10.7 9.4 9.9 95 0.4 SE 7 11 4 6 - - 0.4
26/11:20am 10.7 9.0 9.7 93 0.5 SSE 9 15 5 8 - - 0.2
26/11:10am 11.2 9.1 9.8 91 0.7 ESE 11 17 6 9 - - 0.0
26/11:00am 11.5 9.7 9.3 86 1.2 SE 9 15 5 8 - - 0.0
26/10:50am 11.8 9.8 8.8 82 1.6 SE 9 17 5 9 - - 0.0
26/10:40am 11.6 9.8 9.4 86 1.2 SE 9 17 5 9 - - 0.0
26/10:30am 11.0 9.2 9.4 90 0.8 ESE 9 15 5 8 - - 0.0
26/10:20am 10.8 9.4 9.6 92 0.6 SE 7 11 4 6 - - 0.0
26/10:00am 10.0 8.2 9.4 96 0.3 ESE 9 13 5 7 - - 0.0
26/09:50am 9.8 7.6 9.2 96 0.3 SE 11 15 6 8 - - 0.0
26/09:40am 9.8 7.9 9.1 95 0.4 SSE 9 13 5 7 - - 0.0
26/09:30am 9.8 8.3 9.0 95 0.4 SSE 7 9 4 5 - - 0.0
26/09:20am 10.0 8.5 9.1 94 0.5 SE 7 9 4 5 - - 0.0
26/09:10am 10.0 8.0 8.8 92 0.6 ESE 9 13 5 7 - - 0.0
26/09:00am 10.1 8.1 8.6 90 0.8 SE 9 13 5 7 - - 0.6
26/08:50am 10.0 7.9 8.2 88 0.9 SE 9 11 5 6 - - 0.6
26/08:40am 9.8 7.7 8.2 90 0.8 SE 9 13 5 7 - - 0.6
26/08:30am 9.5 7.0 8.3 92 0.6 ESE 11 15 6 8 - - 0.6
26/08:20am 9.5 7.4 8.2 92 0.7 ESE 9 15 5 8 - - 0.6
26/08:10am 9.5 6.6 8.0 90 0.8 ESE 13 17 7 9 - - 0.6
26/08:00am 9.5 6.5 7.9 90 0.8 ESE 13 15 7 8 - - 0.6
26/07:50am 9.4 6.4 7.8 90 0.8 ESE 13 19 7 10 - - 0.6
26/07:40am 9.3 6.3 7.7 90 0.8 SE 13 17 7 9 - - 0.6
26/07:30am 9.3 6.3 7.7 90 0.8 SE 13 17 7 9 - - 0.6
26/07:20am 9.3 5.5 7.6 89 0.9 SE 17 19 9 10 - - 0.6
26/07:10am 9.1 6.1 7.5 90 0.8 SE 13 17 7 9 - - 0.6
26/07:00am 9.1 5.7 7.5 90 0.8 ESE 15 22 8 12 - - 0.6
26/06:50am 9.1 5.6 7.4 89 0.9 SE 15 20 8 11 - - 0.6
26/06:40am 9.1 5.3 7.5 90 0.8 SE 17 22 9 12 - - 0.6
26/06:30am 9.0 5.9 7.4 90 0.8 SE 13 22 7 12 - - 0.6
26/06:20am 9.1 6.0 7.3 88 0.9 SE 13 19 7 10 - - 0.6
26/06:10am 9.1 5.6 7.1 87 1.0 SE 15 19 8 10 - - 0.6
26/06:00am 9.0 5.5 7.1 88 0.9 SE 15 22 8 12 - - 0.6
26/05:50am 8.9 5.4 7.0 88 0.9 SE 15 20 8 11 - - 0.6
26/05:40am 8.8 5.6 7.0 88 0.9 SE 13 15 7 8 - - 0.6
26/05:30am 8.9 5.4 7.0 88 0.9 SE 15 20 8 11 - - 0.6
26/05:20am 8.8 5.2 6.9 88 0.9 SE 15 22 8 12 - - 0.6
26/05:10am 8.8 5.3 7.0 88 0.9 SE 15 22 8 12 - - 0.6
26/05:00am 8.8 6.0 7.0 88 0.9 SE 11 15 6 8 - - 0.6
26/04:50am 8.8 6.0 6.9 88 0.9 SE 11 15 6 8 - - 0.6
26/04:40am 8.8 6.0 6.9 88 0.9 SE 11 15 6 8 - - 0.6
26/04:30am 8.9 5.7 6.8 87 1.0 SSE 13 17 7 9 - - 0.6
26/04:20am 8.8 5.6 6.7 87 1.0 SSE 13 17 7 9 - - 0.6
26/04:10am 8.8 5.9 6.7 87 1.0 SE 11 17 6 9 - - 0.6
26/04:00am 8.8 5.9 6.6 86 1.1 SSE 11 15 6 8 - - 0.6
26/03:50am 8.8 5.6 6.7 87 1.0 SSE 13 19 7 10 - - 0.6
26/03:40am 8.7 5.4 6.6 87 1.0 SSE 13 15 7 8 - - 0.6
26/03:30am 8.7 5.1 6.6 87 1.0 SE 15 19 8 10 - - 0.6
26/03:20am 8.7 5.1 6.6 87 1.0 SE 15 19 8 10 - - 0.6
26/03:10am 8.6 5.3 6.6 87 1.0 SE 13 17 7 9 - - 0.6
26/03:00am 8.5 4.9 6.7 88 0.9 SE 15 19 8 10 - - 0.6
26/02:50am 8.6 5.0 6.8 88 0.9 SE 15 20 8 11 - - 0.6
26/02:40am 8.6 5.4 6.8 88 0.9 SE 13 17 7 9 - - 0.6
26/02:30am 8.5 4.5 6.8 89 0.8 SE 17 22 9 12 - - 0.6
26/02:20am 8.5 4.9 6.9 90 0.8 SE 15 22 8 12 - - 0.6
26/02:10am 8.6 4.6 6.7 88 0.9 SSE 17 24 9 13 - - 0.6
26/02:00am 8.6 5.0 6.7 88 0.9 SSE 15 19 8 10 - - 0.6
26/01:50am 8.7 5.4 6.6 87 1.0 SSE 13 19 7 10 - - 0.6
26/01:40am 8.7 5.1 6.6 87 1.0 SE 15 17 8 9 - - 0.6
26/01:30am 8.8 5.2 6.6 86 1.1 SE 15 17 8 9 - - 0.6
26/01:20am 8.9 5.3 6.6 85 1.1 SE 15 19 8 10 - - 0.6
26/01:10am 8.9 5.2 6.5 85 1.2 SSE 15 19 8 10 - - 0.6
26/01:00am 8.7 5.0 6.5 86 1.1 SSE 15 20 8 11 - - 0.6
26/12:50am 8.7 5.0 6.5 86 1.1 SSE 15 19 8 10 - - 0.6
26/12:40am 8.6 5.3 6.5 87 1.0 SSE 13 17 7 9 - - 0.6
26/12:30am 8.7 5.0 6.5 86 1.1 SSE 15 26 8 14 - - 0.6
26/12:20am 8.7 4.6 6.4 85 1.1 SSE 17 20 9 11 - - 0.6
26/12:10am 8.6 4.6 6.5 87 1.0 S 17 22 9 12 - - 0.6
26/12:00am 8.6 4.9 6.4 86 1.1 SSE 15 19 8 10 - - 0.6
 
Date/Time
EST
Temp
°C
App
Temp
°C
Dew
Point
°C
Rel
Hum
%
Delta-T
°C
Wind Press
QNH
hPa
Press
MSL
hPa
Rain since
9am
mm
Dir  Spd
km/h
Gust
km/h
Spd
kts
Gust
kts
25/11:50pm 8.7 5.0 6.5 86 1.1 SSE 15 19 8 10 - - 0.6
25/11:40pm 8.7 4.7 6.5 86 1.1 SSE 17 20 9 11 - - 0.6
25/11:30pm 8.7 4.3 6.4 85 1.1 S 19 24 10 13 - - 0.6
25/11:20pm 8.6 4.9 6.4 86 1.1 S 15 17 8 9 - - 0.6
25/11:10pm 8.6 4.9 6.4 86 1.1 S 15 19 8 10 - - 0.6
25/11:00pm 8.6 4.9 6.4 86 1.1 S 15 19 8 10 - - 0.6
25/10:50pm 8.7 5.4 6.4 85 1.1 S 13 22 7 12 - - 0.6
25/10:40pm 8.7 5.4 6.5 86 1.1 S 13 19 7 10 - - 0.6
25/10:30pm 8.7 5.8 6.5 86 1.1 S 11 15 6 8 - - 0.6
25/10:20pm 8.8 5.5 6.4 85 1.2 S 13 17 7 9 - - 0.6
25/10:10pm 8.8 5.1 6.3 84 1.2 S 15 20 8 11 - - 0.6
25/10:00pm 8.8 5.5 6.3 84 1.2 S 13 17 7 9 - - 0.6
25/09:50pm 8.8 5.1 6.3 84 1.2 S 15 20 8 11 - - 0.6
25/09:40pm 8.8 5.5 6.2 84 1.3 S 13 17 7 9 - - 0.6
25/09:30pm 8.9 5.2 6.2 83 1.3 S 15 24 8 13 - - 0.6
25/09:20pm 8.9 5.2 6.2 83 1.3 S 15 20 8 11 - - 0.6
25/09:10pm 8.9 4.8 6.2 83 1.3 S 17 19 9 10 - - 0.6
25/09:00pm 8.9 4.8 6.2 83 1.3 S 17 24 9 13 - - 0.6
25/08:50pm 8.8 4.7 6.3 84 1.2 S 17 19 9 10 - - 0.6
25/08:40pm 8.9 4.8 6.2 83 1.3 S 17 22 9 12 - - 0.6
25/08:30pm 8.8 5.1 6.3 84 1.2 S 15 20 8 11 - - 0.6
25/08:20pm 8.8 5.1 6.2 84 1.3 S 15 19 8 10 - - 0.6
25/08:10pm 8.8 5.5 6.2 84 1.3 S 13 19 7 10 - - 0.6
25/08:00pm 8.8 5.1 6.3 84 1.2 S 15 20 8 11 - - 0.6
25/07:50pm 8.8 5.1 6.2 84 1.3 S 15 19 8 10 - - 0.6
25/07:40pm 8.7 5.8 6.3 85 1.2 S 11 15 6 8 - - 0.6
25/07:30pm 8.6 4.9 6.3 85 1.1 S 15 19 8 10 - - 0.6
25/07:20pm 8.5 4.8 6.3 86 1.1 S 15 22 8 12 - - 0.6
25/07:10pm 8.6 5.0 6.7 88 0.9 S 15 22 8 12 - - 0.4
25/07:00pm 8.9 5.6 6.3 84 1.3 S 13 15 7 8 - - 0.4
25/06:50pm 9.0 5.3 6.1 82 1.4 SSE 15 20 8 11 - - 0.4
25/06:40pm 9.0 4.9 6.2 82 1.4 S 17 20 9 11 - - 0.4
25/06:30pm 9.1 5.7 6.1 81 1.5 S 13 20 7 11 - - 0.4
25/06:20pm 9.2 6.2 6.0 80 1.6 S 11 19 6 10 - - 0.4
25/06:10pm 9.2 5.8 6.0 80 1.6 S 13 19 7 10 - - 0.4
25/06:00pm 9.3 5.9 6.0 80 1.6 S 13 20 7 11 - - 0.4
25/05:50pm 9.4 5.6 5.9 79 1.7 S 15 19 8 10 - - 0.4
25/05:40pm 9.4 5.6 5.9 79 1.7 S 15 17 8 9 - - 0.4
25/05:30pm 9.5 6.5 5.9 78 1.8 S 11 15 6 8 - - 0.4
25/05:20pm 9.5 5.7 5.8 78 1.8 S 15 17 8 9 - - 0.4
25/05:10pm 9.6 5.8 5.9 78 1.8 S 15 22 8 12 - - 0.4
25/05:00pm 9.7 5.9 5.9 77 1.9 S 15 19 8 10 - - 0.4
25/04:50pm 9.7 5.9 5.8 77 1.9 S 15 19 8 10 - - 0.4
25/04:40pm 9.8 6.0 5.9 77 1.9 S 15 22 8 12 - - 0.4
25/04:30pm 9.9 5.7 5.8 75 2.0 S 17 22 9 12 - - 0.4
25/04:20pm 10.1 5.6 5.9 75 2.1 S 19 22 10 12 - - 0.4
25/04:10pm 10.6 7.6 6.2 74 2.2 S 11 19 6 10 - - 0.4
25/04:00pm 11.2 8.3 6.3 72 2.4 S 11 19 6 10 - - 0.4
25/03:50pm 11.5 8.9 6.3 70 2.6 S 9 19 5 10 - - 0.4
25/03:40pm 11.3 7.9 6.1 70 2.6 S 13 17 7 9 - - 0.4

Other formats

Comma delimited format used in spreadsheet applications
http://www.bom.gov.au/fwo/IDN60801/IDN60801.99999.axf

JavaScript Object Notation format (JSON) in row-major order
http://www.bom.gov.au/fwo/IDN60801/IDN60801.99999.json

Data quality

Most of these data are generated automatically and are frequently updated. Quality checks on data are not normally performed. It is possible for incorrect values to appear. Refer to information at About Latest Weather Observations and please check the disclaimer before using these data.